Time;durP1;ratioP1;P1;durP2;ratioP2;P2;SDS_P1;SDS_P2;PMS_P1;PMS_P2;Temp;Humidity;BMP_temperature;BMP_pressure;BME280_temperature;BME280_humidity;BME280_pressure;Samples;Min_cycle;Max_cycle;Signal;HPM_P1;HPM_P2
2021/12/19 00:01:05;;;;;;;11.13;2.20;;;;;;;6.45;97.75;103145.66;15301156;19;20015;-89
2021/12/19 00:11:29;;;;;;;7.75;2.00;;;;;;;6.49;96.76;103142.50;15298835;19;20086;-90
2021/12/19 00:16:32;;;;;;;8.38;1.80;;;;;;;6.50;96.70;103138.19;15295664;19;20010;-90
2021/12/19 00:21:35;;;;;;;12.25;2.15;;;;;;;6.48;97.28;103134.56;15294495;19;20078;-89
2021/12/19 00:26:37;;;;;;;6.60;2.13;;;;;;;6.48;97.02;103122.44;15292273;19;20013;-89
2021/12/19 00:31:39;;;;;;;5.75;1.80;;;;;;;6.45;97.08;103098.81;15296053;19;20085;-88
2021/12/19 00:36:41;;;;;;;9.55;2.30;;;;;;;6.53;96.37;103102.88;15293905;19;20028;-89
2021/12/19 00:41:43;;;;;;;9.07;2.10;;;;;;;6.50;96.67;103107.88;15296069;19;20084;-89
2021/12/19 00:46:53;;;;;;;8.27;1.98;;;;;;;6.52;96.33;103098.47;15295584;19;20086;-88
2021/12/19 00:51:55;;;;;;;7.43;1.80;;;;;;;6.48;96.32;103099.03;15295786;19;20018;-89
2021/12/19 00:56:56;;;;;;;9.88;1.92;;;;;;;6.49;96.03;103090.44;15293847;19;20024;-89
2021/12/19 01:01:58;;;;;;;10.27;1.90;;;;;;;6.50;95.64;103081.84;15294894;19;20154;-90
2021/12/19 01:07:01;;;;;;;9.05;1.77;;;;;;;6.54;95.56;103075.13;15296031;19;20396;-90
2021/12/19 01:12:04;;;;;;;11.38;2.15;;;;;;;6.60;95.16;103078.16;15292742;19;20636;-90
2021/12/19 01:17:08;;;;;;;7.72;1.80;;;;;;;6.50;95.72;103061.00;15291222;19;20011;-90
2021/12/19 01:22:09;;;;;;;6.13;1.80;;;;;;;6.50;95.68;103055.81;15293414;19;20030;-89
2021/12/19 01:27:11;;;;;;;6.05;1.75;;;;;;;6.48;96.17;103041.75;15292139;19;20537;-90
2021/12/19 01:32:12;;;;;;;10.60;1.70;;;;;;;6.47;96.52;103044.25;15291958;19;20082;-88
2021/12/19 01:37:14;;;;;;;7.35;2.35;;;;;;;6.53;96.06;103039.47;15290071;19;20024;-89
2021/12/19 01:42:19;;;;;;;9.90;1.83;;;;;;;6.56;96.09;103039.72;15290608;19;20011;-87
2021/12/19 01:47:21;;;;;;;7.05;1.70;;;;;;;6.48;96.34;103033.94;15291957;19;20085;-89
2021/12/19 01:52:24;;;;;;;12.70;1.60;;;;;;;6.47;96.85;103034.78;15292398;19;20007;-89
2021/12/19 01:57:26;;;;;;;10.18;1.42;;;;;;;6.42;97.07;103030.03;15291772;19;20007;-89
2021/12/19 02:02:27;;;;;;;9.85;1.50;;;;;;;6.47;96.10;103028.66;15293136;19;20014;-90
2021/12/19 02:07:30;;;;;;;5.85;1.23;;;;;;;6.42;96.43;103030.94;15290804;19;20018;-90
2021/12/19 02:12:31;;;;;;;10.70;1.80;;;;;;;6.45;96.18;103023.34;15286640;19;20028;-90
2021/12/19 02:17:33;;;;;;;6.43;1.20;;;;;;;6.52;95.96;103019.47;15286194;19;20074;-89
2021/12/19 02:22:35;;;;;;;5.20;1.15;;;;;;;6.44;95.62;103024.16;15286149;19;20616;-89
2021/12/19 02:27:38;;;;;;;7.95;1.67;;;;;;;6.46;96.44;103001.72;15286879;19;20510;-90
2021/12/19 02:32:41;;;;;;;5.18;1.63;;;;;;;6.53;96.32;103018.66;15288212;19;20427;-90
2021/12/19 02:48:13;;;;;;;8.90;2.22;;;;;;;6.47;96.15;103008.75;15289855;19;20023;-89
2021/12/19 02:53:23;;;;;;;9.52;2.42;;;;;;;6.52;96.16;102996.06;15284535;19;20007;-89
2021/12/19 02:58:25;;;;;;;14.25;3.15;;;;;;;6.52;95.97;102986.53;15285194;19;20006;-89
2021/12/19 03:03:27;;;;;;;14.00;3.60;;;;;;;6.51;95.46;102984.72;15293738;19;20537;-89
2021/12/19 03:08:30;;;;;;;14.00;5.47;;;;;;;6.46;94.92;102974.81;15286967;19;20022;-89
2021/12/19 03:17:57;;;;;;;12.90;5.82;;;;;;;6.46;94.84;102969.59;15284852;19;20326;-90
2021/12/19 03:19:00;;;;;;;16.88;5.60;;;;;;;6.49;94.41;102973.31;15286343;19;20035;-90
2021/12/19 03:24:03;;;;;;;19.15;5.85;;;;;;;6.45;94.79;102968.69;15283841;19;20033;-90
2021/12/19 03:29:04;;;;;;;15.98;6.25;;;;;;;6.50;94.91;102969.91;15286210;19;20035;-90
2021/12/19 03:34:06;;;;;;;19.73;6.00;;;;;;;6.42;95.05;102958.06;15287980;19;20031;-89
2021/12/19 03:39:25;;;;;;;19.38;6.05;;;;;;;6.48;94.53;102962.78;15287263;19;20007;-89
2021/12/19 03:44:27;;;;;;;15.85;5.15;;;;;;;6.48;94.53;102955.88;15281921;19;20450;-89
2021/12/19 03:49:28;;;;;;;18.80;5.32;;;;;;;6.42;94.24;102957.16;15287019;19;20014;-90
2021/12/19 03:54:30;;;;;;;14.45;4.63;;;;;;;6.49;93.40;102954.19;15283673;19;20451;-89
2021/12/19 03:59:32;;;;;;;15.93;4.38;;;;;;;6.45;93.95;102942.66;15283895;19;20805;-90
2021/12/19 04:04:37;;;;;;;12.80;4.28;;;;;;;6.36;94.13;102932.53;15309271;19;20010;-89
2021/12/19 04:09:39;;;;;;;10.98;3.65;;;;;;;6.33;94.24;102942.72;15306445;19;20010;-89
2021/12/19 04:14:41;;;;;;;13.18;3.35;;;;;;;6.42;94.13;102926.81;15304291;19;20038;-89
2021/12/19 04:19:43;;;;;;;15.35;3.78;;;;;;;6.42;93.87;102926.81;15318037;19;20014;-90
2021/12/19 04:24:44;;;;;;;10.90;3.30;;;;;;;6.37;94.39;102920.41;15329475;19;20014;-90
2021/12/19 04:29:46;;;;;;;12.00;2.92;;;;;;;6.35;94.60;102924.59;15330088;19;20018;-90
2021/12/19 04:34:48;;;;;;;14.30;2.88;;;;;;;6.24;95.42;102909.97;15325440;19;20014;-89
2021/12/19 04:40:05;;;;;;;8.63;2.65;;;;;;;6.29;95.50;102908.56;15327364;19;20018;-90
2021/12/19 05:17:04;;;;;;;8.50;2.67;;;;;;;6.26;97.11;102882.34;15320521;19;20416;-89
2021/12/19 05:22:06;;;;;;;13.27;2.13;;;;;;;6.23;97.08;102883.06;15319446;19;20010;-91
2021/12/19 05:27:09;;;;;;;9.32;2.92;;;;;;;6.23;96.69;102871.72;15315696;19;20023;-90
2021/12/19 05:32:11;;;;;;;8.10;2.38;;;;;;;6.23;96.13;102871.72;15317323;19;20007;-89
2021/12/19 05:47:53;;;;;;;9.35;2.80;;;;;;;6.22;96.37;102875.16;15318467;19;20010;-89
2021/12/19 05:52:55;;;;;;;24.58;3.92;;;;;;;6.29;96.28;102879.94;15317220;19;20042;-90
2021/12/19 05:57:57;;;;;;;14.40;3.33;;;;;;;6.16;96.49;102876.50;15320833;19;20014;-89
2021/12/19 06:03:00;;;;;;;10.55;2.85;;;;;;;6.21;96.48;102873.34;15330046;19;20018;-89
2021/12/19 06:08:02;;;;;;;11.20;3.33;;;;;;;6.11;97.23;102859.69;15318387;19;20014;-90
2021/12/19 06:13:04;;;;;;;10.40;2.97;;;;;;;6.15;97.96;102853.88;15305500;19;20379;-90
2021/12/19 06:18:05;;;;;;;17.58;2.72;;;;;;;6.14;98.08;102852.09;15307580;19;20011;-89
2021/12/19 06:23:09;;;;;;;10.77;3.35;;;;;;;6.06;98.81;102842.88;15301654;19;20015;-89
2021/12/19 06:28:11;;;;;;;13.90;2.42;;;;;;;6.10;98.42;102854.41;15309153;19;20022;-90
2021/12/19 06:33:13;;;;;;;11.30;2.28;;;;;;;6.04;98.28;102848.78;15308992;19;20014;-89
2021/12/19 06:38:15;;;;;;;5.00;1.90;;;;;;;6.01;98.82;102841.66;15306794;19;20022;-88
2021/12/19 06:43:17;;;;;;;10.75;2.00;;;;;;;5.99;98.80;102836.34;15305432;19;20015;-89
2021/12/19 06:48:22;;;;;;;8.00;2.20;;;;;;;6.02;98.77;102827.88;15304411;19;20078;-88
2021/12/19 06:53:24;;;;;;;10.43;2.63;;;;;;;5.98;99.25;102820.66;15306232;19;20565;-89
2021/12/19 06:58:26;;;;;;;8.68;2.55;;;;;;;6.04;99.12;102825.38;15297627;19;20010;-90
2021/12/19 07:03:27;;;;;;;15.73;2.45;;;;;;;6.00;99.22;102817.38;15312047;19;20027;-92
2021/12/19 07:08:30;;;;;;;13.50;3.33;;;;;;;5.96;99.96;102819.59;15298970;19;20078;-89
2021/12/19 07:13:31;;;;;;;8.32;2.42;;;;;;;5.94;100.00;102806.47;15288081;19;20025;-87
2021/12/19 07:18:33;;;;;;;9.52;2.35;;;;;;;5.98;99.63;102805.03;15287766;19;20010;-90
2021/12/19 07:23:43;;;;;;;7.68;2.20;;;;;;;5.91;100.00;102795.88;15287297;19;20638;-89
2021/12/19 07:28:47;;;;;;;13.00;2.45;;;;;;;5.88;100.00;102795.66;15285867;19;20019;-90
2021/12/19 07:33:48;;;;;;;7.07;1.98;;;;;;;5.89;100.00;102791.38;15297869;19;20014;-90
2021/12/19 07:39:00;;;;;;;5.30;1.40;;;;;;;5.96;100.00;102796.19;15312763;19;20590;-89
2021/12/19 07:44:02;;;;;;;8.20;2.03;;;;;;;5.91;100.00;102784.56;15308417;19;20023;-88
2021/12/19 07:49:04;;;;;;;7.05;2.00;;;;;;;5.91;100.00;102784.56;15310580;19;20018;-90
2021/12/19 07:54:05;;;;;;;10.18;2.00;;;;;;;5.80;100.00;102782.16;15315429;19;20023;-88
2021/12/19 07:59:07;;;;;;;10.05;1.98;;;;;;;5.89;100.00;102774.06;15318212;19;20018;-89
2021/12/19 08:04:09;;;;;;;6.05;1.85;;;;;;;5.80;100.00;102776.06;15331997;19;20018;-88
2021/12/19 08:09:21;;;;;;;13.45;2.30;;;;;;;5.92;100.00;102765.59;15318124;19;20018;-90
2021/12/19 08:14:23;;;;;;;7.65;2.13;;;;;;;5.88;100.00;102755.78;15310210;19;20424;-87
2021/12/19 08:19:25;;;;;;;12.40;2.15;;;;;;;5.93;100.00;102760.50;15299565;19;20026;-87
2021/12/19 08:24:26;;;;;;;10.82;2.58;;;;;;;5.99;100.00;102754.81;15294471;19;20035;-88
2021/12/19 08:29:31;;;;;;;15.27;3.10;;;;;;;5.96;100.00;102758.09;15302749;19;20011;-90
2021/12/19 08:34:33;;;;;;;12.90;1.65;;;;;;;5.94;100.00;102753.59;15300746;19;20094;-88
2021/12/19 08:39:37;;;;;;;7.78;1.42;;;;;;;5.92;100.00;102744.78;15299661;19;20014;-88
2021/12/19 08:44:39;;;;;;;9.07;2.17;;;;;;;5.98;100.00;102753.91;15292431;19;20014;-87
2021/12/19 08:49:41;;;;;;;6.32;1.60;;;;;;;5.95;100.00;102751.09;15298867;19;20014;-85
2021/12/19 08:54:43;;;;;;;6.93;1.88;;;;;;;5.99;100.00;102747.94;15294065;19;20021;-86
2021/12/19 08:59:45;;;;;;;12.80;2.15;;;;;;;6.01;100.00;102742.84;15300341;19;20022;-88
2021/12/19 09:04:49;;;;;;;6.85;2.10;;;;;;;5.97;100.00;102754.72;15310075;19;20482;-90
2021/12/19 09:09:56;;;;;;;11.17;1.90;;;;;;;5.95;100.00;102751.09;15301780;19;20015;-89
2021/12/19 09:14:59;;;;;;;4.25;1.40;;;;;;;6.03;100.00;102762.03;15302516;19;20588;-90
2021/12/19 09:20:05;;;;;;;9.65;2.30;;;;;;;6.07;100.00;102747.56;15302256;19;20583;-90
2021/12/19 09:25:07;;;;;;;11.13;2.42;;;;;;;6.06;100.00;102743.13;15298549;19;20018;-90
2021/12/19 09:30:10;;;;;;;9.27;2.35;;;;;;;6.10;100.00;102745.16;15298448;19;20010;-89
2021/12/19 09:35:14;;;;;;;10.32;2.10;;;;;;;6.10;100.00;102751.25;15300222;19;20022;-90
2021/12/19 09:40:21;;;;;;;6.75;1.75;;;;;;;6.12;100.00;102747.03;15302068;19;20031;-87
2021/12/19 09:45:25;;;;;;;9.30;2.35;;;;;;;6.18;100.00;102739.66;15303772;19;20010;-89
2021/12/19 09:50:30;;;;;;;12.73;2.08;;;;;;;6.16;100.00;102741.25;15305618;19;20025;-90
2021/12/19 09:55:32;;;;;;;9.40;1.90;;;;;;;6.23;99.92;102736.44;15300964;19;20095;-89
2021/12/19 10:00:33;;;;;;;8.80;1.98;;;;;;;6.30;99.12;102736.06;15299770;19;20074;-88
2021/12/19 10:05:38;;;;;;;20.42;1.90;;;;;;;6.40;98.14;102720.25;15297345;19;20364;-89
2021/12/19 10:10:59;;;;;;;14.63;2.78;;;;;;;6.41;97.20;102716.84;15304035;19;20022;-89
2021/12/19 10:16:26;;;;;;;10.48;1.40;;;;;;;6.54;97.77;102710.72;15297555;19;20032;-89
2021/12/19 10:21:35;;;;;;;10.43;1.95;;;;;;;6.51;97.41;102708.81;15299128;19;20482;-87
2021/12/19 10:26:44;;;;;;;9.25;2.10;;;;;;;6.49;98.06;102694.81;15298474;19;20338;-88
2021/12/19 10:32:05;;;;;;;15.47;1.90;;;;;;;6.52;98.12;102673.28;15302679;19;20609;-88
2021/12/19 10:37:07;;;;;;;13.45;1.65;;;;;;;6.50;98.00;102669.69;15298912;19;20051;-89
2021/12/19 10:42:11;;;;;;;10.20;1.60;;;;;;;6.52;97.58;102665.50;15294263;19;20018;-90
2021/12/19 10:47:34;;;;;;;18.98;2.60;;;;;;;6.60;97.55;102658.16;15298610;19;20085;-90
2021/12/19 10:52:38;;;;;;;11.75;2.28;;;;;;;6.64;97.02;102655.84;15298243;19;20027;-88
2021/12/19 10:57:42;;;;;;;10.82;2.00;;;;;;;6.64;97.33;102637.63;15294662;19;20021;-92
2021/12/19 11:02:44;;;;;;;10.85;2.08;;;;;;;6.69;96.36;102637.91;15303168;19;20015;-91
2021/12/19 11:08:05;;;;;;;10.50;2.22;;;;;;;6.67;96.78;102629.13;15304009;19;20010;-89
2021/12/19 11:13:12;;;;;;;13.88;2.20;;;;;;;6.68;96.19;102629.22;15300556;19;20039;-90
2021/12/19 11:18:14;;;;;;;18.50;2.08;;;;;;;6.72;96.33;102609.47;15296219;19;20007;-89
2021/12/19 11:23:21;;;;;;;10.52;2.30;;;;;;;6.76;96.50;102603.66;15296738;19;20888;-87
2021/12/19 11:28:22;;;;;;;13.20;2.15;;;;;;;6.76;96.58;102600.16;15297481;19;20023;-88
2021/12/19 11:34:05;;;;;;;7.30;1.80;;;;;;;6.78;96.37;102583.81;15285724;19;20010;-87
2021/12/19 11:39:08;;;;;;;15.05;2.05;;;;;;;6.87;96.20;102584.34;15285881;19;20018;-88
2021/12/19 11:44:31;;;;;;;7.07;2.33;;;;;;;6.81;97.06;102578.78;15288123;19;20082;-86
2021/12/19 11:49:33;;;;;;;13.93;2.65;;;;;;;6.85;96.58;102570.34;15286875;19;20022;-85
2021/12/19 11:54:35;;;;;;;15.00;2.45;;;;;;;6.83;97.16;102574.59;15294420;19;20507;-87
2021/12/19 11:59:39;;;;;;;18.15;2.50;;;;;;;6.81;96.75;102570.97;15280796;19;20022;-88
2021/12/19 12:04:41;;;;;;;11.60;1.92;;;;;;;6.84;95.88;102541.63;15291115;19;20018;-88
2021/12/19 12:09:55;;;;;;;15.48;1.88;;;;;;;7.03;94.41;102538.44;15291727;19;20026;-88
2021/12/19 12:15:03;;;;;;;10.27;2.10;;;;;;;6.96;94.53;102531.03;15290662;19;20011;-87
2021/12/19 12:20:17;;;;;;;8.02;1.13;;;;;;;7.13;93.95;102525.13;15288482;19;20015;-87
2021/12/19 12:25:31;;;;;;;13.18;2.42;;;;;;;7.12;94.22;102531.16;15295834;19;20017;-87
2021/12/19 12:30:35;;;;;;;5.10;1.20;;;;;;;7.07;94.53;102537.78;15300960;19;20396;-87
2021/12/19 12:35:39;;;;;;;9.07;1.52;;;;;;;7.06;94.49;102534.28;15303136;19;20438;-87
2021/12/19 12:40:48;;;;;;;8.38;1.38;;;;;;;6.97;94.95;102525.03;15301781;19;20031;-88
2021/12/19 12:46:02;;;;;;;7.25;1.23;;;;;;;7.00;94.72;102527.81;15305383;19;20486;-88
2021/12/19 12:51:38;;;;;;;6.82;1.23;;;;;;;7.01;95.32;102537.41;15303564;19;20074;-88
2021/12/19 12:56:48;;;;;;;3.70;0.90;;;;;;;7.05;95.40;102500.34;15302460;19;20022;-88
2021/12/19 13:01:53;;;;;;;4.47;1.77;;;;;;;7.01;96.15;102506.16;15303843;19;20010;-88
2021/12/19 13:07:05;;;;;;;7.55;1.50;;;;;;;6.93;96.62;102507.44;15305517;19;20018;-87
2021/12/19 13:12:20;;;;;;;10.20;1.48;;;;;;;6.86;97.83;102495.72;15297789;19;20042;-86
2021/12/19 13:17:29;;;;;;;4.03;1.17;;;;;;;6.75;98.37;102484.69;15292963;19;20007;-87
2021/12/19 13:22:38;;;;;;;4.27;1.10;;;;;;;6.82;98.58;102486.84;15295211;19;20014;-87
2021/12/19 13:27:43;;;;;;;8.43;1.55;;;;;;;6.79;98.41;102477.97;15297247;19;20039;-87
2021/12/19 13:32:56;;;;;;;10.27;1.33;;;;;;;6.84;98.16;102484.34;15297112;19;20772;-87
2021/12/19 13:37:59;;;;;;;5.43;1.25;;;;;;;6.86;97.95;102482.72;15296211;19;20010;-86
2021/12/19 13:43:06;;;;;;;10.20;1.95;;;;;;;6.89;97.83;102480.28;15299694;19;20982;-88
2021/12/19 13:48:19;;;;;;;14.52;2.10;;;;;;;6.84;97.47;102477.41;15292837;19;20028;-86
2021/12/19 13:53:21;;;;;;;7.90;1.45;;;;;;;6.86;97.37;102486.22;15294421;19;20074;-87
2021/12/19 13:58:28;;;;;;;12.77;1.35;;;;;;;6.91;96.89;102486.50;15293629;19;20471;-89
2021/12/19 14:03:43;;;;;;;10.07;1.50;;;;;;;6.99;96.38;102480.03;15295918;19;20097;-88
2021/12/19 14:08:51;;;;;;;7.65;1.73;;;;;;;6.91;96.43;102460.47;15290809;19;20007;-86
2021/12/19 14:14:26;;;;;;;6.35;1.30;;;;;;;6.95;96.01;102461.53;15295265;19;20014;-87
2021/12/19 14:19:43;;;;;;;8.10;1.95;;;;;;;7.02;94.66;102459.38;15296403;19;20018;-86
2021/12/19 14:24:51;;;;;;;13.57;2.00;;;;;;;7.01;94.52;102447.16;15291914;19;20461;-86
2021/12/19 14:29:58;;;;;;;12.43;3.08;;;;;;;7.13;94.02;102435.66;15294886;19;20017;-87
2021/12/19 14:35:05;;;;;;;11.75;1.95;;;;;;;7.07;93.43;102444.00;15284719;19;20010;-86
2021/12/19 14:40:06;;;;;;;8.50;1.38;;;;;;;7.04;92.96;102436.00;15289680;19;20010;-84
2021/12/19 14:45:30;;;;;;;9.10;1.42;;;;;;;7.07;92.52;102433.56;15286963;19;20015;-87
2021/12/19 14:50:50;;;;;;;7.47;1.48;;;;;;;7.01;89.98;102426.34;15288692;19;20026;-86
2021/12/19 14:55:55;;;;;;;15.05;1.63;;;;;;;7.07;89.24;102436.19;15289283;19;20015;-87
2021/12/19 15:01:13;;;;;;;5.75;1.40;;;;;;;7.07;88.71;102431.91;15289239;19;20046;-87
2021/12/19 15:06:20;;;;;;;15.48;2.42;;;;;;;7.02;89.21;102433.31;15295319;19;20039;-86
2021/12/19 15:11:22;;;;;;;10.50;1.63;;;;;;;7.08;89.73;102430.19;15292490;19;20082;-86
2021/12/19 15:16:24;;;;;;;5.70;1.83;;;;;;;7.12;88.87;102403.50;15288567;19;20082;-86
2021/12/19 15:21:26;;;;;;;12.20;1.90;;;;;;;6.93;90.53;102401.53;15288151;19;20022;-86
2021/12/19 15:26:28;;;;;;;12.73;1.73;;;;;;;6.97;90.79;102394.81;15284774;19;20051;-87
2021/12/19 15:31:31;;;;;;;11.02;1.50;;;;;;;6.88;91.06;102403.88;15287827;19;20066;-86
2021/12/19 15:36:34;;;;;;;7.70;1.23;;;;;;;6.97;90.24;102397.44;15287904;19;20015;-86
2021/12/19 15:41:36;;;;;;;9.65;1.50;;;;;;;6.90;90.81;102399.69;15279828;19;20029;-86
2021/12/19 15:46:38;;;;;;;12.07;1.95;;;;;;;6.88;90.93;102389.97;15284200;19;20011;-85
2021/12/19 15:51:39;;;;;;;11.52;1.75;;;;;;;6.93;90.48;102379.81;15284375;19;20010;-88
2021/12/19 15:56:42;;;;;;;6.22;1.40;;;;;;;6.98;90.63;102388.78;15280473;19;20018;-89
2021/12/19 16:01:43;;;;;;;10.32;1.83;;;;;;;6.85;91.17;102376.78;15296673;19;20014;-86
2021/12/19 16:06:45;;;;;;;12.05;1.77;;;;;;;6.92;91.00;102383.22;15300000;19;20014;-87
2021/12/19 16:11:47;;;;;;;11.23;1.45;;;;;;;6.93;89.65;102400.66;15294526;19;20696;-87
2021/12/19 16:16:48;;;;;;;16.65;2.80;;;;;;;6.97;88.53;102392.22;15290338;19;20025;-88
2021/12/19 16:21:50;;;;;;;9.82;1.50;;;;;;;6.90;88.36;102397.06;15288995;19;20015;-87
2021/12/19 16:26:52;;;;;;;8.85;1.73;;;;;;;6.91;88.78;102405.78;15293979;19;20038;-87
2021/12/19 16:31:56;;;;;;;7.50;1.98;;;;;;;6.88;89.21;102390.84;15299202;19;20020;-87
2021/12/19 16:36:58;;;;;;;12.00;1.70;;;;;;;6.88;85.70;102416.91;15282870;19;20288;-87
2021/12/19 16:42:04;;;;;;;18.38;2.30;;;;;;;6.92;84.43;102394.56;15292967;19;20021;-88
2021/12/19 16:47:06;;;;;;;11.93;1.85;;;;;;;6.81;85.74;102417.34;15288069;19;20017;-87
2021/12/19 16:52:07;;;;;;;21.48;3.30;;;;;;;6.77;85.76;102410.19;15290391;19;20078;-87
2021/12/19 16:57:09;;;;;;;18.88;3.47;;;;;;;6.75;85.84;102423.91;15288020;19;20049;-90
2021/12/19 17:02:12;;;;;;;13.63;2.42;;;;;;;6.67;83.78;102420.84;15289904;19;20030;-90
2021/12/19 17:07:14;;;;;;;23.58;3.55;;;;;;;6.77;80.56;102420.59;15288590;19;20082;-90
2021/12/19 17:12:18;;;;;;;18.88;3.15;;;;;;;6.65;81.44;102419.84;15290847;19;20077;-88
2021/12/19 17:17:20;;;;;;;16.52;2.75;;;;;;;6.65;80.56;102433.78;15291357;19;20031;-92
2021/12/19 17:22:22;;;;;;;18.58;3.30;;;;;;;6.54;81.97;102417.53;15291682;19;20758;-90
2021/12/19 17:27:24;;;;;;;33.47;3.80;;;;;;;6.49;81.42;102413.75;15291322;19;20018;-89
2021/12/19 17:32:26;;;;;;;18.88;3.13;;;;;;;6.41;82.23;102428.00;15289603;19;20027;-88
2021/12/19 17:37:29;;;;;;;18.58;2.50;;;;;;;6.41;82.13;102425.41;15297838;19;20014;-89
2021/12/19 17:42:30;;;;;;;17.52;2.90;;;;;;;6.47;82.46;102417.97;15297118;19;20082;-88
2021/12/19 17:47:33;;;;;;;26.60;3.33;;;;;;;6.30;84.00;102421.25;15297064;19;20019;-87
2021/12/19 17:52:35;;;;;;;24.05;3.85;;;;;;;6.26;83.86;102427.06;15292034;19;20101;-88
2021/12/19 17:57:37;;;;;;;24.10;2.88;;;;;;;6.17;83.67;102425.72;15297199;19;20360;-88
2021/12/19 18:02:40;;;;;;;27.38;3.33;;;;;;;6.16;83.21;102423.00;15292401;19;20018;-89
2021/12/19 18:07:43;;;;;;;23.48;3.42;;;;;;;6.05;83.38;102427.56;15289210;19;20239;-90
2021/12/19 18:12:46;;;;;;;24.52;3.58;;;;;;;6.04;83.03;102432.66;15287880;19;20043;-90
2021/12/19 18:17:52;;;;;;;25.35;4.05;;;;;;;5.93;83.38;102444.94;15271558;19;20018;-89
2021/12/19 18:22:57;;;;;;;29.95;4.18;;;;;;;5.93;84.33;102431.94;15293077;19;20014;-87
2021/12/19 18:27:59;;;;;;;19.52;3.25;;;;;;;5.96;84.28;102434.72;15306369;19;20015;-89
2021/12/19 18:33:01;;;;;;;25.88;4.03;;;;;;;5.86;85.13;102435.00;15289908;19;20023;-89
2021/12/19 18:38:07;;;;;;;26.40;3.60;;;;;;;5.72;85.50;102449.69;15286869;19;20024;-89
2021/12/19 18:43:15;;;;;;;33.42;4.10;;;;;;;5.75;85.91;102452.47;15287025;19;20046;-90
2021/12/19 18:48:42;;;;;;;26.63;4.13;;;;;;;5.64;86.00;102449.22;15287933;19;20018;-89
2021/12/19 18:54:10;;;;;;;22.63;4.28;;;;;;;5.67;86.53;102465.00;15289053;19;20006;-90
2021/12/19 18:59:16;;;;;;;29.95;3.78;;;;;;;5.63;86.46;102466.50;15287246;19;20021;-90
2021/12/19 19:04:24;;;;;;;23.75;3.53;;;;;;;5.45;87.69;102454.91;15285272;19;20018;-91
2021/12/19 19:09:31;;;;;;;23.13;3.83;;;;;;;5.48;88.05;102466.41;15285922;19;20027;-90
2021/12/19 19:14:33;;;;;;;27.95;3.58;;;;;;;5.44;87.88;102469.63;15285261;19;20026;-90
2021/12/19 19:19:38;;;;;;;32.83;4.63;;;;;;;5.39;88.53;102471.03;15282847;19;20617;-90
2021/12/19 19:24:44;;;;;;;26.52;3.75;;;;;;;5.38;88.64;102469.22;15283644;19;20475;-89
2021/12/19 19:29:48;;;;;;;21.55;4.72;;;;;;;5.38;88.96;102469.22;15294153;19;20029;-89
2021/12/19 19:34:50;;;;;;;31.27;4.40;;;;;;;5.36;89.00;102473.44;15294861;19;20049;-89
2021/12/19 19:40:11;;;;;;;34.38;4.00;;;;;;;5.35;89.23;102474.22;15302986;19;20018;-88
2021/12/19 19:50:33;;;;;;;;;;;;;;;5.27;90.14;102483.22;15302150;19;20082;-89
2021/12/19 19:55:35;;;;;;;31.63;4.35;;;;;;;5.27;90.29;102486.72;15298908;19;20561;-88
2021/12/19 20:00:37;;;;;;;23.40;4.40;;;;;;;5.15;90.85;102480.72;15302094;19;20011;-90
2021/12/19 20:05:39;;;;;;;30.35;3.67;;;;;;;5.10;91.21;102488.19;15298087;19;20024;-89
2021/12/19 20:10:41;;;;;;;29.95;3.83;;;;;;;5.01;91.75;102487.56;15302210;19;20025;-88
2021/12/19 20:15:43;;;;;;;25.48;3.67;;;;;;;5.00;91.85;102493.56;15302610;19;20022;-89
2021/12/19 20:20:48;;;;;;;28.20;3.92;;;;;;;5.04;91.93;102487.75;15299838;19;20086;-88
2021/12/19 20:25:49;;;;;;;29.83;4.60;;;;;;;4.94;92.26;102491.44;15294970;19;20018;-88
2021/12/19 20:30:52;;;;;;;21.95;4.07;;;;;;;4.92;92.60;102497.31;15298825;19;20025;-90
2021/12/19 20:35:54;;;;;;;32.17;4.13;;;;;;;4.93;92.57;102505.22;15293687;19;20074;-88
2021/12/19 20:40:56;;;;;;;32.60;4.40;;;;;;;4.92;93.19;102497.31;15296951;19;20003;-88
2021/12/19 20:45:58;;;;;;;22.17;5.63;;;;;;;4.88;92.71;102495.31;15291816;19;20014;-91
2021/12/19 20:51:00;;;;;;;30.70;4.25;;;;;;;4.89;92.78;102499.72;15302834;19;20015;-91
2021/12/19 20:56:02;;;;;;;39.33;4.00;;;;;;;4.75;92.92;102507.47;15299117;19;20015;-91
2021/12/19 21:01:07;;;;;;;19.10;3.47;;;;;;;4.68;93.69;102502.63;15307517;19;20109;-91
2021/12/19 21:06:10;;;;;;;18.25;2.90;;;;;;;4.51;94.05;102506.69;15299359;19;20026;-90
2021/12/19 21:11:11;;;;;;;23.38;3.55;;;;;;;4.42;94.39;102501.75;15305607;19;20014;-91
2021/12/19 21:21:36;;;;;;;21.50;3.25;;;;;;;4.16;95.35;102505.13;15303096;19;20025;-90
2021/12/19 21:26:37;;;;;;;27.50;3.17;;;;;;;4.09;95.21;102502.00;15299639;19;20379;-91
2021/12/19 21:31:39;;;;;;;20.20;3.38;;;;;;;3.99;95.71;102500.41;15304469;19;20014;-91
2021/12/19 21:42:13;;;;;;;19.20;3.40;;;;;;;3.77;96.31;102508.34;15302594;19;20371;-91
2021/12/19 21:47:17;;;;;;;20.85;4.38;;;;;;;3.66;96.68;102508.50;15301223;19;20094;-89
2021/12/19 21:52:19;;;;;;;19.05;2.97;;;;;;;3.50;97.56;102506.47;15303847;19;20015;-92
2021/12/19 21:57:21;;;;;;;28.27;4.68;;;;;;;3.41;97.57;102499.69;15300734;19;20011;-91
2021/12/19 22:02:23;;;;;;;19.42;3.58;;;;;;;3.24;97.22;102509.69;15306187;19;20534;-91
2021/12/19 22:07:26;;;;;;;45.17;5.72;;;;;;;3.11;97.67;102502.72;15302665;19;20011;-91
2021/12/19 22:12:42;;;;;;;29.63;3.75;;;;;;;2.99;98.02;102500.09;15297617;19;20006;-90
2021/12/19 22:17:44;;;;;;;29.05;3.95;;;;;;;2.84;98.10;102504.13;15299613;19;20014;-91
2021/12/19 22:22:46;;;;;;;26.75;4.45;;;;;;;2.77;98.40;102505.34;15299375;19;20010;-91
2021/12/19 22:27:47;;;;;;;20.45;4.05;;;;;;;2.65;98.63;102497.53;15299452;19;20018;-92
2021/12/19 22:32:50;;;;;;;24.75;3.33;;;;;;;2.48;98.64;102511.75;15299056;19;20006;-91
2021/12/19 22:37:52;;;;;;;17.88;3.10;;;;;;;2.37;98.90;102512.63;15296269;19;20016;-91
2021/12/19 22:42:54;;;;;;;18.73;4.00;;;;;;;-147.53;100.00;57128.34;15300418;19;20022;-91
2021/12/19 22:47:56;;;;;;;25.02;4.05;;;;;;;-147.53;100.00;57128.34;15301279;19;20010;-91
2021/12/19 22:52:58;;;;;;;19.25;2.63;;;;;;;-147.53;100.00;57128.34;15298460;19;20090;-91
2021/12/19 22:58:01;;;;;;;29.52;3.67;;;;;;;-147.53;100.00;57128.34;15296397;19;20018;-91
2021/12/19 23:03:06;;;;;;;21.23;3.80;;;;;;;-147.53;100.00;57128.34;15303353;19;20040;-91
2021/12/19 23:08:10;;;;;;;19.92;3.20;;;;;;;-147.53;100.00;57128.34;15294674;19;20018;-90
2021/12/19 23:13:16;;;;;;;20.02;3.17;;;;;;;-147.53;100.00;57128.34;15299805;19;20010;-90
2021/12/19 23:18:18;;;;;;;24.48;3.65;;;;;;;1.40;99.65;102518.72;15295023;19;20010;-90
2021/12/19 23:23:20;;;;;;;25.60;3.55;;;;;;;1.30;99.52;102525.56;15292422;19;20048;-90
2021/12/19 23:28:22;;;;;;;13.38;3.03;;;;;;;1.22;99.83;102523.25;15290567;19;20035;-90
2021/12/19 23:38:48;;;;;;;22.52;3.42;;;;;;;0.97;100.00;102532.31;15295992;19;20349;-90
2021/12/19 23:49:10;;;;;;;23.63;4.10;;;;;;;0.79;100.00;102529.97;15296577;19;20416;-91
2021/12/19 23:54:16;;;;;;;22.50;4.18;;;;;;;0.66;100.00;102545.19;15293588;19;20029;-90
2021/12/19 23:59:18;;;;;;;23.20;4.10;;;;;;;0.55;100.00;102538.22;15288000;19;20078;-90
